sensor_id;sensor_type;location;lat;lon;timestamp;P1;durP1;ratioP1;P2;durP2;ratioP2
22131;SDS011;11232;51.748;19.390;2022-12-05T00:02:24;47.70;;;21.23;;
22131;SDS011;11232;51.748;19.390;2022-12-05T00:04:50;57.20;;;22.07;;
22131;SDS011;11232;51.748;19.390;2022-12-05T00:07:15;55.77;;;22.97;;
22131;SDS011;11232;51.748;19.390;2022-12-05T00:09:41;59.03;;;23.07;;
22131;SDS011;11232;51.748;19.390;2022-12-05T00:12:06;53.13;;;21.73;;
22131;SDS011;11232;51.748;19.390;2022-12-05T00:14:32;52.00;;;21.23;;
22131;SDS011;11232;51.748;19.390;2022-12-05T00:16:58;56.57;;;22.67;;
22131;SDS011;11232;51.748;19.390;2022-12-05T00:19:23;51.50;;;21.63;;
22131;SDS011;11232;51.748;19.390;2022-12-05T00:21:49;50.63;;;22.57;;
22131;SDS011;11232;51.748;19.390;2022-12-05T00:24:15;54.67;;;21.73;;
22131;SDS011;11232;51.748;19.390;2022-12-05T00:26:41;52.23;;;21.37;;
22131;SDS011;11232;51.748;19.390;2022-12-05T00:29:07;51.27;;;21.33;;
22131;SDS011;11232;51.748;19.390;2022-12-05T00:31:33;57.63;;;21.83;;
22131;SDS011;11232;51.748;19.390;2022-12-05T00:34:00;52.43;;;21.57;;
22131;SDS011;11232;51.748;19.390;2022-12-05T00:36:27;47.73;;;20.03;;
22131;SDS011;11232;51.748;19.390;2022-12-05T00:38:54;48.33;;;20.97;;
22131;SDS011;11232;51.748;19.390;2022-12-05T00:41:23;54.53;;;22.57;;
22131;SDS011;11232;51.748;19.390;2022-12-05T00:43:50;53.33;;;21.57;;
22131;SDS011;11232;51.748;19.390;2022-12-05T00:46:17;60.73;;;22.77;;
22131;SDS011;11232;51.748;19.390;2022-12-05T00:48:48;54.07;;;21.87;;
22131;SDS011;11232;51.748;19.390;2022-12-05T00:51:18;56.47;;;21.03;;
22131;SDS011;11232;51.748;19.390;2022-12-05T00:53:46;59.87;;;23.00;;
22131;SDS011;11232;51.748;19.390;2022-12-05T00:56:13;59.03;;;23.37;;
22131;SDS011;11232;51.748;19.390;2022-12-05T00:58:40;53.73;;;22.07;;
22131;SDS011;11232;51.748;19.390;2022-12-05T01:01:07;59.20;;;24.17;;
22131;SDS011;11232;51.748;19.390;2022-12-05T01:03:34;51.40;;;22.17;;
22131;SDS011;11232;51.748;19.390;2022-12-05T01:06:01;56.87;;;22.37;;
22131;SDS011;11232;51.748;19.390;2022-12-05T01:08:27;57.03;;;22.53;;
22131;SDS011;11232;51.748;19.390;2022-12-05T01:10:56;56.40;;;21.87;;
22131;SDS011;11232;51.748;19.390;2022-12-05T01:13:22;49.63;;;20.77;;
22131;SDS011;11232;51.748;19.390;2022-12-05T01:15:48;51.77;;;22.20;;
22131;SDS011;11232;51.748;19.390;2022-12-05T01:18:14;49.90;;;22.33;;
22131;SDS011;11232;51.748;19.390;2022-12-05T01:20:40;49.63;;;21.77;;
22131;SDS011;11232;51.748;19.390;2022-12-05T01:23:06;49.80;;;21.00;;
22131;SDS011;11232;51.748;19.390;2022-12-05T01:25:32;48.50;;;19.53;;
22131;SDS011;11232;51.748;19.390;2022-12-05T01:27:58;51.40;;;21.67;;
22131;SDS011;11232;51.748;19.390;2022-12-05T01:30:23;47.53;;;20.63;;
22131;SDS011;11232;51.748;19.390;2022-12-05T01:32:49;56.27;;;22.87;;
22131;SDS011;11232;51.748;19.390;2022-12-05T01:35:14;51.87;;;21.10;;
22131;SDS011;11232;51.748;19.390;2022-12-05T01:37:40;52.73;;;21.60;;
22131;SDS011;11232;51.748;19.390;2022-12-05T01:40:06;53.73;;;21.90;;
22131;SDS011;11232;51.748;19.390;2022-12-05T01:42:32;50.63;;;21.13;;
22131;SDS011;11232;51.748;19.390;2022-12-05T01:44:59;53.20;;;22.30;;
22131;SDS011;11232;51.748;19.390;2022-12-05T01:47:27;46.37;;;20.43;;
22131;SDS011;11232;51.748;19.390;2022-12-05T01:49:54;51.43;;;21.87;;
22131;SDS011;11232;51.748;19.390;2022-12-05T01:52:22;48.87;;;20.43;;
22131;SDS011;11232;51.748;19.390;2022-12-05T01:54:53;53.43;;;21.57;;
22131;SDS011;11232;51.748;19.390;2022-12-05T01:57:20;61.37;;;22.77;;
22131;SDS011;11232;51.748;19.390;2022-12-05T01:59:54;56.67;;;23.07;;
22131;SDS011;11232;51.748;19.390;2022-12-05T02:02:25;53.90;;;22.53;;
22131;SDS011;11232;51.748;19.390;2022-12-05T02:05:02;47.27;;;20.80;;
22131;SDS011;11232;51.748;19.390;2022-12-05T02:07:34;59.33;;;23.37;;
22131;SDS011;11232;51.748;19.390;2022-12-05T02:10:03;57.93;;;23.53;;
22131;SDS011;11232;51.748;19.390;2022-12-05T02:12:30;48.37;;;21.00;;
22131;SDS011;11232;51.748;19.390;2022-12-05T02:17:42;53.80;;;21.93;;
22131;SDS011;11232;51.748;19.390;2022-12-05T02:20:43;52.60;;;20.93;;
22131;SDS011;11232;51.748;19.390;2022-12-05T02:25:55;53.63;;;22.23;;
22131;SDS011;11232;51.748;19.390;2022-12-05T02:31:17;50.40;;;22.13;;
22131;SDS011;11232;51.748;19.390;2022-12-05T02:33:55;53.63;;;23.47;;
22131;SDS011;11232;51.748;19.390;2022-12-05T02:36:33;46.87;;;21.57;;
22131;SDS011;11232;51.748;19.390;2022-12-05T02:43:59;50.30;;;22.20;;
22131;SDS011;11232;51.748;19.390;2022-12-05T02:46:29;57.23;;;23.37;;
22131;SDS011;11232;51.748;19.390;2022-12-05T02:48:58;56.03;;;21.70;;
22131;SDS011;11232;51.748;19.390;2022-12-05T02:51:28;60.60;;;23.37;;
22131;SDS011;11232;51.748;19.390;2022-12-05T02:53:58;59.93;;;21.37;;
22131;SDS011;11232;51.748;19.390;2022-12-05T02:56:26;50.73;;;20.87;;
22131;SDS011;11232;51.748;19.390;2022-12-05T02:58:56;53.13;;;20.17;;
22131;SDS011;11232;51.748;19.390;2022-12-05T03:01:25;54.97;;;21.37;;
22131;SDS011;11232;51.748;19.390;2022-12-05T03:03:54;51.83;;;21.10;;
22131;SDS011;11232;51.748;19.390;2022-12-05T03:06:22;56.30;;;21.50;;
22131;SDS011;11232;51.748;19.390;2022-12-05T03:09:04;58.20;;;21.50;;
22131;SDS011;11232;51.748;19.390;2022-12-05T03:11:34;52.53;;;21.27;;
22131;SDS011;11232;51.748;19.390;2022-12-05T03:14:05;52.70;;;21.77;;
22131;SDS011;11232;51.748;19.390;2022-12-05T03:16:43;57.67;;;21.50;;
22131;SDS011;11232;51.748;19.390;2022-12-05T03:19:34;51.70;;;20.37;;
22131;SDS011;11232;51.748;19.390;2022-12-05T03:22:09;60.10;;;22.37;;
22131;SDS011;11232;51.748;19.390;2022-12-05T03:24:42;51.30;;;21.10;;
22131;SDS011;11232;51.748;19.390;2022-12-05T03:29:56;51.97;;;21.13;;
22131;SDS011;11232;51.748;19.390;2022-12-05T03:32:37;55.00;;;22.67;;
22131;SDS011;11232;51.748;19.390;2022-12-05T03:35:22;56.67;;;23.27;;
22131;SDS011;11232;51.748;19.390;2022-12-05T03:37:57;49.97;;;21.10;;
22131;SDS011;11232;51.748;19.390;2022-12-05T03:43:21;53.17;;;21.33;;
22131;SDS011;11232;51.748;19.390;2022-12-05T03:46:09;60.40;;;21.17;;
22131;SDS011;11232;51.748;19.390;2022-12-05T03:48:49;58.00;;;22.27;;
22131;SDS011;11232;51.748;19.390;2022-12-05T03:51:24;54.77;;;21.03;;
22131;SDS011;11232;51.748;19.390;2022-12-05T03:54:04;62.33;;;22.90;;
22131;SDS011;11232;51.748;19.390;2022-12-05T03:56:36;55.00;;;22.37;;
22131;SDS011;11232;51.748;19.390;2022-12-05T04:02:06;59.50;;;22.80;;
22131;SDS011;11232;51.748;19.390;2022-12-05T04:05:23;61.17;;;24.33;;
22131;SDS011;11232;51.748;19.390;2022-12-05T04:07:33;65.47;;;23.03;;
22131;SDS011;11232;51.748;19.390;2022-12-05T04:10:03;61.83;;;23.40;;
22131;SDS011;11232;51.748;19.390;2022-12-05T04:12:32;59.27;;;22.83;;
22131;SDS011;11232;51.748;19.390;2022-12-05T04:15:12;65.17;;;22.90;;
22131;SDS011;11232;51.748;19.390;2022-12-05T04:20:14;61.10;;;23.20;;
22131;SDS011;11232;51.748;19.390;2022-12-05T04:23:00;58.80;;;23.50;;
22131;SDS011;11232;51.748;19.390;2022-12-05T04:25:27;57.77;;;22.70;;
22131;SDS011;11232;51.748;19.390;2022-12-05T04:41:06;60.10;;;22.33;;
22131;SDS011;11232;51.748;19.390;2022-12-05T04:43:57;57.27;;;22.03;;
22131;SDS011;11232;51.748;19.390;2022-12-05T04:46:25;52.83;;;21.80;;
22131;SDS011;11232;51.748;19.390;2022-12-05T04:48:54;56.37;;;22.97;;
22131;SDS011;11232;51.748;19.390;2022-12-05T04:51:26;59.27;;;21.73;;
22131;SDS011;11232;51.748;19.390;2022-12-05T04:53:58;52.27;;;21.40;;
22131;SDS011;11232;51.748;19.390;2022-12-05T04:56:29;55.73;;;21.63;;
22131;SDS011;11232;51.748;19.390;2022-12-05T04:58:57;58.07;;;22.30;;
22131;SDS011;11232;51.748;19.390;2022-12-05T05:01:24;52.17;;;22.07;;
22131;SDS011;11232;51.748;19.390;2022-12-05T05:04:21;50.07;;;20.73;;
22131;SDS011;11232;51.748;19.390;2022-12-05T05:06:51;59.00;;;22.07;;
22131;SDS011;11232;51.748;19.390;2022-12-05T05:09:17;62.40;;;23.50;;
22131;SDS011;11232;51.748;19.390;2022-12-05T05:11:42;52.57;;;21.33;;
22131;SDS011;11232;51.748;19.390;2022-12-05T05:14:08;63.67;;;22.37;;
22131;SDS011;11232;51.748;19.390;2022-12-05T05:16:35;63.37;;;21.80;;
22131;SDS011;11232;51.748;19.390;2022-12-05T05:19:03;48.60;;;20.80;;
22131;SDS011;11232;51.748;19.390;2022-12-05T05:21:31;57.47;;;22.37;;
22131;SDS011;11232;51.748;19.390;2022-12-05T05:23:58;58.50;;;21.33;;
22131;SDS011;11232;51.748;19.390;2022-12-05T05:26:24;54.03;;;22.23;;
22131;SDS011;11232;51.748;19.390;2022-12-05T05:28:51;62.27;;;22.63;;
22131;SDS011;11232;51.748;19.390;2022-12-05T05:31:18;63.53;;;23.07;;
22131;SDS011;11232;51.748;19.390;2022-12-05T05:33:51;60.97;;;23.37;;
22131;SDS011;11232;51.748;19.390;2022-12-05T05:36:19;61.73;;;25.13;;
22131;SDS011;11232;51.748;19.390;2022-12-05T05:38:47;63.67;;;21.93;;
22131;SDS011;11232;51.748;19.390;2022-12-05T05:41:19;54.33;;;21.63;;
22131;SDS011;11232;51.748;19.390;2022-12-05T05:43:49;55.43;;;21.60;;
22131;SDS011;11232;51.748;19.390;2022-12-05T05:46:18;67.07;;;23.10;;
22131;SDS011;11232;51.748;19.390;2022-12-05T05:48:46;61.17;;;20.83;;
22131;SDS011;11232;51.748;19.390;2022-12-05T05:51:12;54.10;;;22.50;;
22131;SDS011;11232;51.748;19.390;2022-12-05T05:53:38;52.13;;;20.57;;
22131;SDS011;11232;51.748;19.390;2022-12-05T05:56:04;47.30;;;20.17;;
22131;SDS011;11232;51.748;19.390;2022-12-05T05:58:33;61.10;;;22.43;;
22131;SDS011;11232;51.748;19.390;2022-12-05T06:01:06;55.93;;;20.93;;
22131;SDS011;11232;51.748;19.390;2022-12-05T06:03:36;52.70;;;21.10;;
22131;SDS011;11232;51.748;19.390;2022-12-05T06:06:04;53.30;;;21.07;;
22131;SDS011;11232;51.748;19.390;2022-12-05T06:08:35;63.20;;;21.63;;
22131;SDS011;11232;51.748;19.390;2022-12-05T06:11:06;57.23;;;21.30;;
22131;SDS011;11232;51.748;19.390;2022-12-05T06:13:32;64.43;;;22.70;;
22131;SDS011;11232;51.748;19.390;2022-12-05T06:15:58;56.70;;;22.47;;
22131;SDS011;11232;51.748;19.390;2022-12-05T06:18:23;55.73;;;22.33;;
22131;SDS011;11232;51.748;19.390;2022-12-05T06:20:53;58.87;;;23.10;;
22131;SDS011;11232;51.748;19.390;2022-12-05T06:23:19;57.37;;;22.63;;
22131;SDS011;11232;51.748;19.390;2022-12-05T06:25:49;64.47;;;22.93;;
22131;SDS011;11232;51.748;19.390;2022-12-05T06:28:16;64.63;;;21.97;;
22131;SDS011;11232;51.748;19.390;2022-12-05T06:30:42;61.80;;;23.47;;
22131;SDS011;11232;51.748;19.390;2022-12-05T06:33:08;58.57;;;22.27;;
22131;SDS011;11232;51.748;19.390;2022-12-05T06:35:34;59.50;;;21.60;;
22131;SDS011;11232;51.748;19.390;2022-12-05T06:37:59;64.23;;;23.13;;
22131;SDS011;11232;51.748;19.390;2022-12-05T06:40:25;58.67;;;22.13;;
22131;SDS011;11232;51.748;19.390;2022-12-05T06:42:51;62.27;;;21.33;;
22131;SDS011;11232;51.748;19.390;2022-12-05T06:45:16;57.00;;;22.80;;
22131;SDS011;11232;51.748;19.390;2022-12-05T06:47:42;58.70;;;22.63;;
22131;SDS011;11232;51.748;19.390;2022-12-05T06:50:08;60.60;;;21.53;;
22131;SDS011;11232;51.748;19.390;2022-12-05T06:52:34;58.23;;;22.10;;
22131;SDS011;11232;51.748;19.390;2022-12-05T06:55:00;57.33;;;21.27;;
22131;SDS011;11232;51.748;19.390;2022-12-05T06:57:27;56.63;;;23.30;;
22131;SDS011;11232;51.748;19.390;2022-12-05T06:59:53;56.70;;;21.27;;
22131;SDS011;11232;51.748;19.390;2022-12-05T07:02:38;50.93;;;20.40;;
22131;SDS011;11232;51.748;19.390;2022-12-05T07:05:06;58.53;;;20.33;;
22131;SDS011;11232;51.748;19.390;2022-12-05T07:07:32;58.67;;;21.97;;
22131;SDS011;11232;51.748;19.390;2022-12-05T07:09:57;53.53;;;20.77;;
22131;SDS011;11232;51.748;19.390;2022-12-05T07:12:23;62.43;;;22.53;;
22131;SDS011;11232;51.748;19.390;2022-12-05T07:14:49;57.23;;;22.70;;
22131;SDS011;11232;51.748;19.390;2022-12-05T07:17:15;64.93;;;22.60;;
22131;SDS011;11232;51.748;19.390;2022-12-05T07:19:41;61.87;;;23.03;;
22131;SDS011;11232;51.748;19.390;2022-12-05T07:22:07;54.97;;;21.43;;
22131;SDS011;11232;51.748;19.390;2022-12-05T07:24:32;56.47;;;22.90;;
22131;SDS011;11232;51.748;19.390;2022-12-05T07:26:58;59.00;;;21.47;;
22131;SDS011;11232;51.748;19.390;2022-12-05T07:29:23;57.10;;;21.07;;
22131;SDS011;11232;51.748;19.390;2022-12-05T07:31:49;59.10;;;20.27;;
22131;SDS011;11232;51.748;19.390;2022-12-05T07:34:14;55.03;;;20.40;;
22131;SDS011;11232;51.748;19.390;2022-12-05T07:36:40;55.00;;;21.53;;
22131;SDS011;11232;51.748;19.390;2022-12-05T07:39:06;49.73;;;19.57;;
22131;SDS011;11232;51.748;19.390;2022-12-05T07:41:31;66.67;;;21.47;;
22131;SDS011;11232;51.748;19.390;2022-12-05T07:43:59;55.67;;;20.47;;
22131;SDS011;11232;51.748;19.390;2022-12-05T07:46:25;54.27;;;19.43;;
22131;SDS011;11232;51.748;19.390;2022-12-05T07:48:52;63.40;;;20.93;;
22131;SDS011;11232;51.748;19.390;2022-12-05T07:51:18;55.70;;;21.20;;
22131;SDS011;11232;51.748;19.390;2022-12-05T07:53:45;60.70;;;21.57;;
22131;SDS011;11232;51.748;19.390;2022-12-05T07:56:12;58.37;;;19.50;;
22131;SDS011;11232;51.748;19.390;2022-12-05T07:58:41;57.53;;;20.60;;
22131;SDS011;11232;51.748;19.390;2022-12-05T08:01:09;61.53;;;21.27;;
22131;SDS011;11232;51.748;19.390;2022-12-05T08:03:36;50.80;;;19.37;;
22131;SDS011;11232;51.748;19.390;2022-12-05T08:06:05;60.23;;;21.70;;
22131;SDS011;11232;51.748;19.390;2022-12-05T08:08:33;55.80;;;20.80;;
22131;SDS011;11232;51.748;19.390;2022-12-05T08:11:02;49.33;;;20.17;;
22131;SDS011;11232;51.748;19.390;2022-12-05T08:13:29;51.93;;;18.47;;
22131;SDS011;11232;51.748;19.390;2022-12-05T08:15:58;54.63;;;19.10;;
22131;SDS011;11232;51.748;19.390;2022-12-05T08:18:25;52.33;;;19.73;;
22131;SDS011;11232;51.748;19.390;2022-12-05T08:20:51;58.37;;;21.40;;
22131;SDS011;11232;51.748;19.390;2022-12-05T08:23:16;54.87;;;20.40;;
22131;SDS011;11232;51.748;19.390;2022-12-05T08:25:42;52.57;;;20.13;;
22131;SDS011;11232;51.748;19.390;2022-12-05T08:28:07;67.33;;;21.83;;
22131;SDS011;11232;51.748;19.390;2022-12-05T08:30:33;52.07;;;21.03;;
22131;SDS011;11232;51.748;19.390;2022-12-05T08:32:58;58.17;;;20.97;;
22131;SDS011;11232;51.748;19.390;2022-12-05T08:35:24;61.07;;;22.13;;
22131;SDS011;11232;51.748;19.390;2022-12-05T08:37:50;55.17;;;20.23;;
22131;SDS011;11232;51.748;19.390;2022-12-05T08:40:16;56.07;;;21.27;;
22131;SDS011;11232;51.748;19.390;2022-12-05T08:42:41;56.23;;;22.40;;
22131;SDS011;11232;51.748;19.390;2022-12-05T08:45:07;48.67;;;19.90;;
22131;SDS011;11232;51.748;19.390;2022-12-05T08:47:33;52.87;;;20.33;;
22131;SDS011;11232;51.748;19.390;2022-12-05T08:49:58;52.90;;;20.70;;
22131;SDS011;11232;51.748;19.390;2022-12-05T08:52:24;56.10;;;22.00;;
22131;SDS011;11232;51.748;19.390;2022-12-05T08:54:50;54.67;;;21.57;;
22131;SDS011;11232;51.748;19.390;2022-12-05T08:57:15;61.53;;;22.67;;
22131;SDS011;11232;51.748;19.390;2022-12-05T08:59:41;58.80;;;22.30;;
22131;SDS011;11232;51.748;19.390;2022-12-05T09:02:07;59.57;;;22.83;;
22131;SDS011;11232;51.748;19.390;2022-12-05T09:04:34;58.10;;;21.27;;
22131;SDS011;11232;51.748;19.390;2022-12-05T09:07:00;52.00;;;20.87;;
22131;SDS011;11232;51.748;19.390;2022-12-05T09:09:27;57.77;;;20.57;;
22131;SDS011;11232;51.748;19.390;2022-12-05T09:11:53;50.00;;;20.50;;
22131;SDS011;11232;51.748;19.390;2022-12-05T09:14:18;56.47;;;21.17;;
22131;SDS011;11232;51.748;19.390;2022-12-05T09:16:45;41.97;;;17.10;;
22131;SDS011;11232;51.748;19.390;2022-12-05T09:19:12;45.00;;;18.40;;
22131;SDS011;11232;51.748;19.390;2022-12-05T09:21:40;49.27;;;18.27;;
22131;SDS011;11232;51.748;19.390;2022-12-05T09:24:06;48.77;;;18.70;;
22131;SDS011;11232;51.748;19.390;2022-12-05T09:26:32;47.20;;;19.10;;
22131;SDS011;11232;51.748;19.390;2022-12-05T09:28:57;50.77;;;20.27;;
22131;SDS011;11232;51.748;19.390;2022-12-05T09:31:24;58.30;;;20.83;;
22131;SDS011;11232;51.748;19.390;2022-12-05T09:33:51;54.80;;;21.00;;
22131;SDS011;11232;51.748;19.390;2022-12-05T09:36:18;52.83;;;20.87;;
22131;SDS011;11232;51.748;19.390;2022-12-05T09:38:45;47.70;;;19.53;;
22131;SDS011;11232;51.748;19.390;2022-12-05T09:46:37;58.27;;;20.70;;
22131;SDS011;11232;51.748;19.390;2022-12-05T09:49:17;51.83;;;21.40;;
22131;SDS011;11232;51.748;19.390;2022-12-05T09:51:43;50.37;;;20.87;;
22131;SDS011;11232;51.748;19.390;2022-12-05T09:54:11;48.77;;;18.83;;
22131;SDS011;11232;51.748;19.390;2022-12-05T09:56:38;45.57;;;19.17;;
22131;SDS011;11232;51.748;19.390;2022-12-05T09:59:08;46.60;;;19.03;;
22131;SDS011;11232;51.748;19.390;2022-12-05T10:01:44;45.17;;;19.33;;
22131;SDS011;11232;51.748;19.390;2022-12-05T10:06:47;48.00;;;20.13;;
22131;SDS011;11232;51.748;19.390;2022-12-05T10:09:27;47.30;;;18.73;;
22131;SDS011;11232;51.748;19.390;2022-12-05T10:12:19;49.47;;;20.40;;
22131;SDS011;11232;51.748;19.390;2022-12-05T10:20:35;44.17;;;18.63;;
22131;SDS011;11232;51.748;19.390;2022-12-05T10:23:23;49.67;;;18.63;;
22131;SDS011;11232;51.748;19.390;2022-12-05T10:25:55;47.40;;;18.23;;
22131;SDS011;11232;51.748;19.390;2022-12-05T10:28:47;46.80;;;18.90;;
22131;SDS011;11232;51.748;19.390;2022-12-05T10:31:17;44.23;;;18.60;;
22131;SDS011;11232;51.748;19.390;2022-12-05T10:33:47;55.20;;;19.83;;
22131;SDS011;11232;51.748;19.390;2022-12-05T10:36:17;50.37;;;20.03;;
22131;SDS011;11232;51.748;19.390;2022-12-05T10:38:43;50.23;;;20.57;;
22131;SDS011;11232;51.748;19.390;2022-12-05T10:41:11;47.33;;;20.80;;
22131;SDS011;11232;51.748;19.390;2022-12-05T10:43:43;46.17;;;18.93;;
22131;SDS011;11232;51.748;19.390;2022-12-05T10:46:10;46.73;;;18.73;;
22131;SDS011;11232;51.748;19.390;2022-12-05T10:48:38;48.93;;;19.80;;
22131;SDS011;11232;51.748;19.390;2022-12-05T10:51:05;48.23;;;20.40;;
22131;SDS011;11232;51.748;19.390;2022-12-05T10:53:39;50.43;;;21.00;;
22131;SDS011;11232;51.748;19.390;2022-12-05T10:59:04;49.30;;;19.90;;
22131;SDS011;11232;51.748;19.390;2022-12-05T11:01:31;50.07;;;19.93;;
22131;SDS011;11232;51.748;19.390;2022-12-05T11:03:59;50.47;;;20.67;;
22131;SDS011;11232;51.748;19.390;2022-12-05T11:06:29;45.23;;;18.87;;
22131;SDS011;11232;51.748;19.390;2022-12-05T11:09:18;48.80;;;19.10;;
22131;SDS011;11232;51.748;19.390;2022-12-05T11:14:33;52.27;;;21.03;;
22131;SDS011;11232;51.748;19.390;2022-12-05T11:17:01;51.90;;;22.10;;
22131;SDS011;11232;51.748;19.390;2022-12-05T11:19:29;57.63;;;21.53;;
22131;SDS011;11232;51.748;19.390;2022-12-05T11:21:59;49.13;;;21.97;;
22131;SDS011;11232;51.748;19.390;2022-12-05T11:24:33;60.27;;;21.60;;
22131;SDS011;11232;51.748;19.390;2022-12-05T11:29:42;54.30;;;22.90;;
22131;SDS011;11232;51.748;19.390;2022-12-05T11:32:16;48.67;;;21.67;;
22131;SDS011;11232;51.748;19.390;2022-12-05T11:34:51;51.83;;;23.30;;
22131;SDS011;11232;51.748;19.390;2022-12-05T11:38:01;58.67;;;22.37;;
22131;SDS011;11232;51.748;19.390;2022-12-05T11:56:57;56.10;;;23.20;;
22131;SDS011;11232;51.748;19.390;2022-12-05T11:59:50;56.67;;;25.13;;
22131;SDS011;11232;51.748;19.390;2022-12-05T12:13:44;63.33;;;25.10;;
22131;SDS011;11232;51.748;19.390;2022-12-05T12:16:49;66.57;;;27.50;;
22131;SDS011;11232;51.748;19.390;2022-12-05T12:27:57;67.93;;;26.10;;
22131;SDS011;11232;51.748;19.390;2022-12-05T12:33:41;72.97;;;26.93;;
22131;SDS011;11232;51.748;19.390;2022-12-05T12:39:07;70.10;;;26.20;;
22131;SDS011;11232;51.748;19.390;2022-12-05T12:41:55;65.37;;;24.37;;
22131;SDS011;11232;51.748;19.390;2022-12-05T12:45:03;67.73;;;26.57;;
22131;SDS011;11232;51.748;19.390;2022-12-05T12:47:44;73.90;;;26.73;;
22131;SDS011;11232;51.748;19.390;2022-12-05T12:50:23;69.73;;;26.90;;
22131;SDS011;11232;51.748;19.390;2022-12-05T13:01:10;74.50;;;28.97;;
22131;SDS011;11232;51.748;19.390;2022-12-05T13:06:27;67.37;;;26.33;;
22131;SDS011;11232;51.748;19.390;2022-12-05T13:08:59;77.90;;;28.87;;
22131;SDS011;11232;51.748;19.390;2022-12-05T13:11:30;71.83;;;27.00;;
22131;SDS011;11232;51.748;19.390;2022-12-05T13:14:00;66.87;;;26.13;;
22131;SDS011;11232;51.748;19.390;2022-12-05T13:16:29;73.23;;;27.37;;
22131;SDS011;11232;51.748;19.390;2022-12-05T13:19:01;81.63;;;28.60;;
22131;SDS011;11232;51.748;19.390;2022-12-05T13:21:30;70.77;;;27.10;;
22131;SDS011;11232;51.748;19.390;2022-12-05T13:23:56;71.83;;;27.40;;
22131;SDS011;11232;51.748;19.390;2022-12-05T13:26:27;67.10;;;26.23;;
22131;SDS011;11232;51.748;19.390;2022-12-05T13:28:55;78.83;;;29.80;;
22131;SDS011;11232;51.748;19.390;2022-12-05T13:31:42;74.70;;;28.20;;
22131;SDS011;11232;51.748;19.390;2022-12-05T13:36:53;76.17;;;29.23;;
22131;SDS011;11232;51.748;19.390;2022-12-05T13:39:41;73.50;;;28.27;;
22131;SDS011;11232;51.748;19.390;2022-12-05T13:42:34;74.50;;;29.10;;
22131;SDS011;11232;51.748;19.390;2022-12-05T13:58:42;81.13;;;29.53;;
22131;SDS011;11232;51.748;19.390;2022-12-05T14:09:02;75.43;;;28.43;;
22131;SDS011;11232;51.748;19.390;2022-12-05T14:11:34;81.20;;;31.00;;
22131;SDS011;11232;51.748;19.390;2022-12-05T14:13:59;78.40;;;29.00;;
22131;SDS011;11232;51.748;19.390;2022-12-05T14:18:57;89.73;;;29.60;;
22131;SDS011;11232;51.748;19.390;2022-12-05T14:30:01;84.00;;;29.37;;
22131;SDS011;11232;51.748;19.390;2022-12-05T14:32:30;85.33;;;31.23;;
22131;SDS011;11232;51.748;19.390;2022-12-05T14:35:11;79.10;;;30.00;;
22131;SDS011;11232;51.748;19.390;2022-12-05T14:37:52;79.80;;;29.23;;
22131;SDS011;11232;51.748;19.390;2022-12-05T14:40:28;77.57;;;29.07;;
22131;SDS011;11232;51.748;19.390;2022-12-05T14:54:02;80.33;;;30.10;;
22131;SDS011;11232;51.748;19.390;2022-12-05T14:56:30;84.77;;;31.37;;
22131;SDS011;11232;51.748;19.390;2022-12-05T15:01:33;74.83;;;29.53;;
22131;SDS011;11232;51.748;19.390;2022-12-05T15:07:03;80.83;;;30.33;;
22131;SDS011;11232;51.748;19.390;2022-12-05T15:09:53;78.10;;;28.93;;
22131;SDS011;11232;51.748;19.390;2022-12-05T15:12:57;91.20;;;30.27;;
22131;SDS011;11232;51.748;19.390;2022-12-05T15:18:23;78.33;;;29.47;;
22131;SDS011;11232;51.748;19.390;2022-12-05T15:21:07;78.80;;;29.37;;
22131;SDS011;11232;51.748;19.390;2022-12-05T15:23:46;78.73;;;31.07;;
22131;SDS011;11232;51.748;19.390;2022-12-05T15:31:25;81.90;;;31.23;;
22131;SDS011;11232;51.748;19.390;2022-12-05T15:33:54;87.77;;;31.43;;
22131;SDS011;11232;51.748;19.390;2022-12-05T15:36:25;86.13;;;32.80;;
22131;SDS011;11232;51.748;19.390;2022-12-05T15:38:57;86.83;;;31.07;;
22131;SDS011;11232;51.748;19.390;2022-12-05T15:41:26;81.20;;;31.43;;
22131;SDS011;11232;51.748;19.390;2022-12-05T15:43:55;80.90;;;30.60;;
22131;SDS011;11232;51.748;19.390;2022-12-05T15:46:23;80.23;;;30.90;;
22131;SDS011;11232;51.748;19.390;2022-12-05T15:48:54;76.27;;;31.50;;
22131;SDS011;11232;51.748;19.390;2022-12-05T15:51:32;80.77;;;31.93;;
22131;SDS011;11232;51.748;19.390;2022-12-05T15:56:46;85.70;;;32.53;;
22131;SDS011;11232;51.748;19.390;2022-12-05T15:59:17;83.83;;;31.20;;
22131;SDS011;11232;51.748;19.390;2022-12-05T16:01:54;86.23;;;31.93;;
22131;SDS011;11232;51.748;19.390;2022-12-05T16:04:44;76.43;;;31.70;;
22131;SDS011;11232;51.748;19.390;2022-12-05T16:07:14;85.13;;;33.43;;
22131;SDS011;11232;51.748;19.390;2022-12-05T16:09:40;83.67;;;32.93;;
22131;SDS011;11232;51.748;19.390;2022-12-05T16:14:59;85.80;;;33.40;;
22131;SDS011;11232;51.748;19.390;2022-12-05T16:17:36;82.33;;;32.10;;
22131;SDS011;11232;51.748;19.390;2022-12-05T16:22:45;79.73;;;31.83;;
22131;SDS011;11232;51.748;19.390;2022-12-05T16:25:13;84.93;;;32.23;;
22131;SDS011;11232;51.748;19.390;2022-12-05T16:27:40;88.30;;;32.30;;
22131;SDS011;11232;51.748;19.390;2022-12-05T16:32:36;84.53;;;32.13;;
22131;SDS011;11232;51.748;19.390;2022-12-05T16:35:03;78.50;;;31.30;;
22131;SDS011;11232;51.748;19.390;2022-12-05T16:37:49;77.67;;;32.97;;
22131;SDS011;11232;51.748;19.390;2022-12-05T16:40:19;72.80;;;30.50;;
22131;SDS011;11232;51.748;19.390;2022-12-05T16:42:46;81.63;;;31.57;;
22131;SDS011;11232;51.748;19.390;2022-12-05T16:45:36;85.37;;;32.53;;
22131;SDS011;11232;51.748;19.390;2022-12-05T16:48:13;76.57;;;32.00;;
22131;SDS011;11232;51.748;19.390;2022-12-05T16:50:40;75.57;;;30.47;;
22131;SDS011;11232;51.748;19.390;2022-12-05T16:55:37;78.40;;;33.33;;
22131;SDS011;11232;51.748;19.390;2022-12-05T16:58:07;78.37;;;32.10;;
22131;SDS011;11232;51.748;19.390;2022-12-05T17:00:35;81.00;;;33.27;;
22131;SDS011;11232;51.748;19.390;2022-12-05T17:03:01;79.20;;;32.70;;
22131;SDS011;11232;51.748;19.390;2022-12-05T17:05:26;81.43;;;34.60;;
22131;SDS011;11232;51.748;19.390;2022-12-05T17:07:54;73.30;;;31.80;;
22131;SDS011;11232;51.748;19.390;2022-12-05T17:10:19;74.73;;;32.00;;
22131;SDS011;11232;51.748;19.390;2022-12-05T17:12:45;80.33;;;32.27;;
22131;SDS011;11232;51.748;19.390;2022-12-05T17:15:17;77.63;;;31.87;;
22131;SDS011;11232;51.748;19.390;2022-12-05T17:17:44;73.43;;;32.37;;
22131;SDS011;11232;51.748;19.390;2022-12-05T17:20:10;74.27;;;32.23;;
22131;SDS011;11232;51.748;19.390;2022-12-05T17:22:39;87.30;;;33.57;;
22131;SDS011;11232;51.748;19.390;2022-12-05T17:25:48;81.07;;;34.50;;
22131;SDS011;11232;51.748;19.390;2022-12-05T17:28:00;80.27;;;33.97;;
22131;SDS011;11232;51.748;19.390;2022-12-05T17:30:26;83.87;;;35.77;;
22131;SDS011;11232;51.748;19.390;2022-12-05T17:32:51;83.33;;;35.00;;
22131;SDS011;11232;51.748;19.390;2022-12-05T17:35:17;79.97;;;33.87;;